LiveATC.Net - Listen to live air traffic control over the Internet! Contact LiveATC.net for advertising information


ICAO: EHRD  IATA: RTM   Airport: Rotterdam The Hague Airport
City: Rotterdam
Country: Netherlands   Continent: Europe
EHRD METAR Weather: EHRD 241425Z AUTO 18010KT 150V210 3200 -RADZ FEW005 BKN007 OVC008 13/12 Q1016 RERA REDZ TEMPO 6000 BKN004
EHRD Flight Activity (FlightAware)
EHRD Twr/App
Feed Status: DOWN
Last heard on: 2014-10-21 18:36:03 (2 days 20 hours 9 minutes ago)
EHRD Twr/App Audio Archives
FacilityFrequency
Rotterdam Approach127.025
Rotterdam Tower118.200

EHRD ADS-B Logs

NOTICE

Unauthorized use prohibited. See LiveATC.net Terms of Service


Find LiveATC Audio Streams


Airport/ARTCC Code

Frequency
(e.g., 124.400, 128.75)
Site-wide search

Browse LiveATC Feeds
LiveATC Coverage Map
Top 50 LiveATC Feeds
Bad Weather Areas

LiveATC FAQ
Offer a LiveATC Feed
Contact LiveATC.net
Press Inquiries

LiveATC on iPhone
LiveATC on Android

LiveATC Mobile
(Mobile browser)

ATC Audio Archives
Interesting Recordings

LiveATC Forums


Home Page
About LiveATC.net
Make a Donation
LiveATC Bookstore

Terms of Use
Privacy Policy

ATC/Radar Sites
U.S. ARTCC Freqs
Canadian Air Freqs

AIRMETs/SIGMETs

FAA Airport Status
Nat'l Airspace Status
Arrival Demand Charts


Server Software By:
Icecast.org
Liquidsoap

Please make a donation to help us keep growing!